BIEG W STRONĘ ŻYCIA

Organizator/ Organizer:
Fundacja „W Stronę Życia”
Data/ Date:
2018-09-08
Miejsce/ Place:
Bydgoszcz
Dystans/ Distance:
5 km
Zgłoszonych/ Registered:
465
Wystartowało/ Started:
375
Nie ukończyło/ Not finished:
0
Ukończyło/ Finished:
375
Na trasie/ On track:
0

Klasyfikacja/ Classiffication: M-Open

Wyniki nieoficjalne !!!
Pełne wyniki/ Full Results : PDF | CSV
Wyniki uproszczone/ Simple results : PDF | PDF2 | CSV
 
Klasyfikacje w punktach pomiarowych/ Classification for time points: Meta
Klasyfikacje wg kategorii/ Classification by category: Wszyscy | K-Open | M-Open

Msc/ RnkZawodnik/ NameNumer/ BibKlub/ TeamMiejscowość/ CityKraj/ CountryKategoria/ CategoryMkat/ CatRnkK/M/ W/MCzas startu/Start timeCzas
netto
5km
Czas
brutto
5km
Różn/ GapTempo
min/km
Tempo
km/h
       
1KULPA Michał 366GMD ZYKANBUKOWIECM-Open1M 100:00:0300:17:32.5500:17:36.15 3:3017.1
2GIL Waldemar 322BOŻENKOWOM-Open2M 200:00:0300:19:08.6500:19:12.60+00:01:363:4915.7
3LIPIŃSKI Mariusz 270KWIDZYNM-Open3M 300:00:0400:19:14.2500:19:18.50+00:01:413:5015.6
4OLEJNIK Krzysztof 181BYDGOSZCZM-Open4M 400:00:0300:19:36.5000:19:40.30+00:02:033:5515.3
5TACIAK Dawid 189BYDGOSZCZM-Open5M 500:00:0900:19:39.4500:19:48.55+00:02:063:5515.3
6PORZYCH Rafał 352RAFSON.TVNIEMCZM-Open6M 600:00:0300:19:42.0500:19:45.25+00:02:093:5615.2
7KAWIECKI Paweł 235AKADEMIAMUZYCZNABIEGANIDZICAM-Open7M 700:00:0400:19:58.3500:20:02.55+00:02:253:5915
8KNOTHE Adam 401BUDSTOL INVESTNIEMCZM-Open8M 800:00:0400:20:00.7500:20:05.15+00:02:284:0015
9PAWĘTA Marcin 330BYDGOSZCZM-Open9M 900:00:0500:20:01.9500:20:07.10+00:02:294:0015
10NAGORZYSKI Arkadiusz 7BIEGAM WSPIERAM MOTYWUJĘBYDGOSZCZM-Open10M 1000:00:0400:20:04.1500:20:08.95+00:02:314:0015
11LEŚ Krzysztof 297TORUŃM-Open11M 1100:00:0400:20:25.3500:20:29.75+00:02:524:0514.7
12GRUSZECZKA Jacek 219POLSKA GRUPA BIEGOWAGRUDZIĄDZM-Open12M 1200:00:0800:20:44.5000:20:52.65+00:03:114:0814.5
13STANIEC Tomasz 333BYDGOSZCZM-Open13M 1300:00:0400:20:46.9000:20:51.20+00:03:144:0914.4
14KOWALSKI Jacek 143BYDGOSZCZM-Open14M 1400:00:1300:21:06.2500:21:19.65+00:03:334:1314.2
15KOZIŃSKI Marek 413RUN BYDGOSZCZOSIELSKOM-Open15M 1500:00:0500:21:20.7000:21:26.35+00:03:484:1614.1
16ZWIEWKA Adam 237BIAŁE BŁOTAM-Open16M 1600:00:0500:21:33.5000:21:39.00+00:04:004:1813.9
17GIERACH Marcin 437G-TEAMNIEMCZM-Open17M 1700:00:0400:21:33.6500:21:37.75+00:04:014:1813.9
18STANISZEWSKI Krzysztof 421ŚWIECIEM-Open18M 1800:00:0700:21:39.3000:21:46.80+00:04:064:1913.9
19SMARZYŃSKI Sebastian 337PRABUTYM-Open19M 1900:00:2000:21:48.4000:22:08.90+00:04:154:2113.8
20SZYSZKA Radosław 167KEEEPERBYDGOSZCZM-Open20M 2000:00:0300:21:53.4500:21:56.75+00:04:204:2213.7
21BARCZAK Tomasz 71BYDGOSZCZM-Open21M 2100:00:0500:22:05.1500:22:10.30+00:04:324:2513.6
22JANKOWSKI Marcin 449M-Open22M 2200:00:0800:22:10.3000:22:18.70+00:04:374:2613.5
23FOKSIŃSKI Filip 313STAFF ENEA BYDGOSZCZ TRIATHLONBYDGOSZCZM-Open23M 2300:00:0500:22:14.7500:22:20.70+00:04:424:2713.5
24GATTNER Robert 103ZIELONA GÓRAM-Open24M 2400:00:1900:22:23.7000:22:43.40+00:04:514:2813.4
25KUJAWA Daniel 15956. BAZA LOTNICZAINOWROCŁAWM-Open25M 2500:00:1100:22:37.1000:22:48.55+00:05:044:3113.3
26AUGUSTYNOWICZ Andrzej 320RCI BYDGOSZCZBYDGOSZCZM-Open26M 2600:00:0800:22:41.0500:22:49.15+00:05:084:3213.2
27MAZUR Dawid 301HEROBOX ŚWIECIEŚWIECIEM-Open27M 2700:00:1400:22:56.1500:23:10.40+00:05:234:3513.1
28CHOLEWIŃSKI Mateusz 369KRUSZYNM-Open28M 2800:00:1800:23:03.2000:23:22.05+00:05:304:3613
29ŚWIATLAK Piotr 264SOWA BYDGOSZCZBYDGOSZCZM-Open29M 2900:00:0600:23:12.4000:23:19.00+00:05:394:3812.9
30SOBCZAK Rafał 456M-Open30M 3000:00:0600:23:13.9000:23:20.50+00:05:414:3812.9
31FIECEK Łukasz 243BYDGOSZCZM-Open31M 3100:00:1000:23:21.3000:23:31.50+00:05:484:4012.8
32AFELT Jarosław 39BYDGOSZCZM-Open32M 3200:00:2700:23:35.8500:24:03.80+00:06:034:4312.7
33CIEŚLEWICZ Karol 125FABER EST QUISQUE SUAE FORTUNAEBYDGOSZCZM-Open33M 3300:00:1900:23:42.2500:24:01.35+00:06:094:4412.7
34NIZIOŁ Marcin 405INOWROCŁAWM-Open34M 3400:00:1000:23:43.1000:23:53.75+00:06:104:4412.6
35BOROWSKI Radosław 262MLKS KRAJNA SĘPÓLNOBYDGOSZCZM-Open35M 3500:00:1600:23:43.8500:24:00.05+00:06:114:4412.6
36WIŚNIEWSKI Leszek 370BYDGOSZCZM-Open36M 3600:00:2600:23:46.8500:24:13.05+00:06:144:4512.6
37SAWIŃSKI Łukasz 202KCYNIAM-Open37M 3700:00:0800:23:47.5500:23:55.75+00:06:154:4512.6
38OLECHNOWICZ Tomasz 428SMUKAŁABYDGOSZCZM-Open38M 3800:00:0900:23:50.3500:23:59.80+00:06:174:4612.6
39KRUPA Tomasz 134INOWROCŁAWM-Open39M 3900:00:1100:23:51.6000:24:02.95+00:06:194:4612.6
40MINZYANOV Anton 361BYDGOSZCZM-Open40M 4000:00:0600:23:54.8000:24:01.70+00:06:224:4712.5
41OLEJNICZAK Marcin 60TORUŃM-Open41M 4100:01:1100:23:56.4000:25:07.60+00:06:234:4712.5
42TATERA Michał 57BYDGOSZCZM-Open42M 4200:00:1200:23:59.6500:24:11.70+00:06:274:4712.5
43POPIELARZ Robert 450M-Open43M 4300:00:0700:24:03.1000:24:11.05+00:06:304:4812.5
44TYMIŃSKI Przemysław 362LA RIVE TEAMGRUDZIĄDZM-Open44M 4400:00:0500:24:03.1500:24:08.15+00:06:304:4812.5
45REGLIŃSKI Krzysiek 133WARSZAWAM-Open45M 4500:00:1600:24:05.4000:24:22.05+00:06:324:4912.4
46GONDEK Krzysztof 363NAKŁO NAD NOTECIĄM-Open46M 4600:00:0600:24:17.4500:24:24.30+00:06:444:5112.3
47BIRSKI Marcin 199NIEMCZM-Open47M 4700:00:1000:24:22.9000:24:33.10+00:06:504:5212.3
48MORZYK Michał 331979OSIELSKOM-Open48M 4800:00:2700:24:25.7500:24:53.15+00:06:534:5312.3
49TWARDOWSKI Bartosz 173BYDGOSZCZM-Open49M 4900:00:3300:24:28.2000:25:01.95+00:06:554:5312.3
50MUĆKO Bartosz 145BYDGOSZCZM-Open50M 5000:00:0500:24:30.2500:24:35.40+00:06:574:5412.2
51KOCISZEWSKI Marek 292BYDGOSZCZM-Open51M 5100:00:4200:24:33.5500:25:16.50+00:07:014:5412.2
52GRACZYK Przemysław 203BYDGOSZCZM-Open52M 5200:00:2700:24:37.0000:25:04.40+00:07:044:5512.2
53KIJEWSKI Maciej 198KABEL TEAM BYDGOSZCZBYDGOSZCZM-Open53M 5300:00:3000:24:37.3000:25:08.00+00:07:044:5512.2
54KLIMKIEWICZ Tomasz 383BYDGOSZCZM-Open54M 5400:00:1100:24:38.7000:24:50.20+00:07:064:5512.2
55WELSBERG Bartosz 287BYDGOSZCZM-Open55M 5500:00:3000:24:45.8500:25:16.55+00:07:134:5712.1
56FERENS Paweł 260BBLINOWROCŁAWINOWROCŁAWM-Open56M 5600:00:0900:24:47.6500:24:57.55+00:07:154:5712.1
57MARCINKOWSKI Artur 53KORONOWOM-Open57M 5700:00:1200:24:53.4000:25:05.50+00:07:204:5812.1
58POWIERŻA Maciej 187OSIEM-Open58M 5800:00:1500:24:55.9000:25:11.35+00:07:234:5912
59RATAJCZAK Jakub 372BYDGOSZCZM-Open59M 5900:00:1300:24:56.8000:25:09.80+00:07:244:5912
60KOLSKI Michał 236INOWROCŁAWM-Open60M 6000:00:1000:24:57.0000:25:07.20+00:07:244:5912
61PACZKOWSKI Mirosław 251CB163BYDGOSZCZM-Open61M 6100:00:4200:25:00.2500:25:42.45+00:07:275:0012
62PALUCH Karol 445M-Open62M 6200:00:0000:25:06.6000:25:06.60+00:07:345:0112
63NOWICKI Olgierd 326BYDGOSZCZM-Open63M 6300:00:3100:25:07.6500:25:39.10+00:07:355:0111.9
64MAZUREK Tyberiusz 327HEROBOX ŚWIECIEŚWIECIEM-Open64M 6400:00:1300:25:13.9000:25:27.60+00:07:415:0211.9
65PŁACZKIEWICZ Robert 298SOL3BYDGOSZCZM-Open65M 6500:00:2100:25:20.1000:25:41.40+00:07:475:0411.8
66FRĄCKOWIAK Waldemar 118BYDGOSZCZM-Open66M 6600:00:1800:25:22.6000:25:41.10+00:07:505:0411.8
67BUCZKOWSKI Krzysztof 2RUN PASJANIEMCZM-Open67M 6700:00:2000:25:24.2000:25:44.20+00:07:515:0411.8
68RODTKO Paweł 447M-Open68M 6800:00:4000:25:25.0500:26:05.85+00:07:525:0511.8
69KRAWCZYK Przemysław 263CROSSFIT TORUŃTORUŃM-Open69M 6900:00:5600:25:28.3500:26:25.05+00:07:555:0511.8
70ŚWIATLAK Marek 356BYDGOSZCZM-Open70M 7000:00:3700:25:30.3500:26:08.15+00:07:575:0611.8
71BUTOWSKI Michał 154SEN O VICTORIIBYDGOSZCZM-Open71M 7100:00:2100:25:35.0000:25:56.70+00:08:025:0711.7
72DOBOSZ Maciej 399LEPIEJJUŻBYŁONIEMCZM-Open72M 7200:00:3100:25:40.5500:26:12.50+00:08:085:0811.7
73MOCHOL Arkadiusz 192BYDGOSZCZM-Open73M 7300:00:2000:25:40.9500:26:01.90+00:08:085:0811.7
74SMOCZYŃSKI Marek 358MBC TEAMTUCHOLAM-Open74M 7400:00:1800:25:41.2000:26:00.10+00:08:085:0811.7
75KABACIŃSKI Jarosław 355BYDGOSZCZM-Open75M 7500:00:2000:25:41.2000:26:01.50+00:08:085:0811.7
76KUBALEWSKI Paweł 247BYDGOSZCZM-Open76M 7600:00:1400:25:48.3500:26:03.25+00:08:155:0911.6
77KWIATKOWSKI Jakub 412NIEMCZM-Open77M 7700:00:1100:25:48.5500:26:00.00+00:08:165:0911.6
78KAMASZ Dawid 153BYDGOSZCZM-Open78M 7800:00:1400:25:49.4000:26:04.30+00:08:165:1011.6
79HERMANOWSKI Łukasz 350BYDGOSZCZM-Open79M 7900:00:5100:25:50.5500:26:41.95+00:08:185:1011.6
80GRUNDKOWSKI Oskar 335BYDGOSZCZM-Open80M 8000:00:0700:25:53.6500:26:00.95+00:08:215:1011.6
81JASINIECKI Wojciech 357BYDGOSZCZM-Open81M 8100:00:1600:25:58.5000:26:14.65+00:08:255:1111.6
82GRZECA Jakub 174PRUSZCZM-Open82M 8200:00:3100:26:02.1000:26:33.90+00:08:295:1211.5
83KIEŁPIKOWSKI Marcin 312BYDGOSZCZM-Open83M 8300:00:2400:26:05.8000:26:29.85+00:08:335:1311.5
84MIĄSKO Paweł 360BYDGOSZCZM-Open84M 8400:00:2000:26:10.2000:26:30.60+00:08:375:1411.5
85MATEJA Piotr 296BYDGOSZCZM-Open85M 8500:00:2600:26:12.1500:26:39.05+00:08:395:1411.4
86RADECKI Maciej 161CYBORGIBYDGOSZCZM-Open86M 8600:00:2600:26:12.6000:26:38.80+00:08:405:1411.5
87GLINKOWSKI Dariusz 105BYDGOSZCZM-Open87M 8700:00:2500:26:14.8000:26:40.30+00:08:425:1511.4
88GŁOWIŃSKI Piotr 465M-Open88M 8800:00:5100:26:15.1000:27:06.10+00:08:425:1511.4
89TOMASZEK Sebastian 376BYDGOSZCZM-Open89M 8900:00:0900:26:15.5500:26:24.85+00:08:435:1511.4
90CHRUPAŁA Rafał 267BYDGOSZCZM-Open90M 9000:00:3700:26:16.2500:26:53.70+00:08:435:1511.4
91SIMIŃSKI Mariusz 150MORSY Z GRUDZIĄDZAGRUDZIĄDZM-Open91M 9100:00:0700:26:20.4500:26:27.70+00:08:475:1611.4
92ZGÓRSKI Maciej 138WQURW_TEAMBYDGOSZCZM-Open92M 9200:00:1200:26:30.5000:26:43.00+00:08:575:1811.3
93GACKOWSKI Adam 466M-Open93M 9300:00:1700:26:35.4000:26:53.15+00:09:025:1911.3
94POLACZYK Tomasz 274BYDGOSZCZM-Open94M 9400:00:1800:26:36.8000:26:54.80+00:09:045:1911.3
95KUJAWA Przemysław 10GOŚCIERADZM-Open95M 9500:00:4300:26:41.9500:27:25.85+00:09:095:2011.2
96SZAKALSKI Michał 386BYDGOSZCZM-Open96M 9600:00:2100:26:44.2500:27:05.30+00:09:115:2011.2
97LEWANDOWSKI Damian 256BYDGOSZCZM-Open97M 9700:00:3200:26:46.7500:27:18.80+00:09:145:2111.2
98DZIATKOWICZ Radosław 180INOWROCŁAWM-Open98M 9800:00:1200:26:49.1000:27:01.20+00:09:165:2111.2
99BORZYSZKOWSKI Grzegorz 205STARY FORDONBYDGOSZCZM-Open99M 9900:00:1100:27:04.7000:27:15.90+00:09:325:2411.1
100GŁOGOWSKI Mateusz 37BYDGOSZCZM-Open100M 10000:00:2000:27:14.9000:27:35.10+00:09:425:2711
101SZPOJDA Filip 380MOCHLEM-Open101M 10100:00:1800:27:15.3500:27:34.20+00:09:425:2711
102BURNICKI Mariusz 108BYDGOSKI KLUB MORSÓWBYDGOSZCZM-Open102M 10200:00:0900:27:16.4500:27:26.15+00:09:435:2711
103URBANIAK Karol 131BYDGOSZCZM-Open103M 10300:00:1100:27:16.4500:27:27.80+00:09:435:2711
104KOZAKIEWICZ Marcin 128NAKŁO NAD NOTECIĄM-Open104M 10400:00:1600:27:16.9000:27:32.95+00:09:445:2711
105PALUSZAK Łukasz 84INOWROCŁAWM-Open105M 10500:00:3600:27:23.7000:27:59.80+00:09:515:2811
106ZIÓŁKOWSKI Łukasz 261BRZEŚĆ KUJAWSKIM-Open106M 10600:00:1700:27:28.4500:27:45.85+00:09:555:2910.9
107MICHALAK Adam 311BYDGOSZCZM-Open107M 10700:00:2200:27:31.0500:27:53.70+00:09:585:3010.9
108WALCZAK Tomasz 371ŚWIECIEM-Open108M 10800:00:3700:27:33.5000:28:10.75+00:10:005:3010.9
109BŁASZKIEWICZ Zbigniew 467M-Open109M 10900:00:3100:27:34.6000:28:06.35+00:10:025:3110.9
110BELTER Andrzej 375ŻOŁĘDOWOM-Open110M 11000:00:2600:27:39.6500:28:06.60+00:10:075:3210.8
111WIŚNIEWSKI Jacek 116BYDGOSZCZM-Open111M 11100:00:4600:27:41.8500:28:27.85+00:10:095:3210.8
112TUBISZ Szymon 19BYDGOSZCZM-Open112M 11200:00:2800:27:47.0000:28:15.30+00:10:145:3310.8
113JANCZUKOWICZ Ryszard 319KORONOWOM-Open113M 11300:00:3200:27:51.3500:28:24.20+00:10:185:3410.8
114ROJEWSKI Jarosław 252KS BEMAROWKIBYDGOSZCZM-Open114M 11400:00:3800:27:56.6500:28:35.30+00:10:245:3510.7
115LENKIEWICZ Andrzej 217PIĘKNYBĄDKIM-Open115M 11500:00:1400:27:57.9500:28:12.65+00:10:255:3510.7
116WITKOWSKI Błażej 23BYDGOSZCZM-Open116M 11600:00:4200:28:04.9500:28:47.60+00:10:325:3710.7
117PEJPA Piotr 315BYDGOSZCZM-Open117M 11700:00:3100:28:06.9000:28:38.55+00:10:345:3710.7
118ROSZAK Tomasz 368DECATLON TEAM INOWROCŁAWPŁAWINEKM-Open118M 11800:00:1000:28:14.0000:28:24.30+00:10:415:3810.6
119FOLARZYŃSKI Łukasz 259INOWROCŁAWM-Open119M 11900:00:1200:28:14.6000:28:26.80+00:10:425:3810.6
120TREPANOWSKI Tomasz 157PRZYŁĘKIM-Open120M 12000:00:3500:28:16.8000:28:52.60+00:10:445:3910.6
121WACHULEC Bartosz 246BYDGOSZCZM-Open121M 12100:00:1500:28:28.2500:28:43.50+00:10:555:4110.5
122KRYŚ Jacek 1DĄBROWA CHEŁMIŃSKAM-Open122M 12200:00:2200:28:47.8500:29:10.65+00:11:155:4510.4
123MRELA Adrian 334BYDGOSZCZM-Open123M 12300:00:3100:28:50.1500:29:21.55+00:11:175:4610.4
124BORAKIEWICZ Przemysław 416GOŁAŃCZM-Open124M 12400:00:2900:28:53.2500:29:22.95+00:11:205:4610.4
125MENDLIK Bernard 268KU AZS UKW BYDGOSZCZOSIELSKOM-Open125M 12500:00:2600:29:08.0500:29:34.80+00:11:355:4910.3
126POTRZEBOWSKI Marek 76DEAFBYDGOSZCZM-Open126M 12600:00:0900:29:10.7000:29:20.60+00:11:385:5010.3
127SZEFLIŃSKI Waldemar 114BYDGOSZCZM-Open127M 12700:00:1800:29:13.0000:29:31.00+00:11:405:5010.3
128KRETOWICZ Piotr 302NIEMCZM-Open128M 12800:00:4700:29:28.9500:30:15.95+00:11:565:5310.2
129WIOSNA Tomasz 209BYDGOSZCZM-Open129M 12900:00:4800:29:31.8500:30:20.05+00:11:595:5410.2
130RUDOWICZ Marcin 191BYDGOSZCZM-Open130M 13000:00:2400:29:50.7000:30:15.45+00:12:185:5810.1
131NIKOŁAJCZYK Lukasz 281SWIECIEM-Open131M 13100:00:3600:29:57.8000:30:34.40+00:12:255:5910
132BRZOZOWSKI Marek 365BYDGOSZCZM-Open132M 13200:00:2600:30:00.0500:30:26.50+00:12:276:0010
133BORKOWSKI Paweł 272BYDGOSZCZM-Open133M 13300:00:2900:30:02.0000:30:31.20+00:12:296:0010
134GWORYS Marcin 411PIŁAM-Open134M 13400:00:2200:30:15.9000:30:38.35+00:12:436:039.9
135KOWALSKI Konrad 367PŁOCKM-Open135M 13500:00:4000:30:19.6500:31:00.05+00:12:476:049.9
136KUŹNIAR Patryk 104BYDGOSZCZM-Open136M 13600:00:1400:30:21.9000:30:36.70+00:12:496:049.9
137ANDRZEJEWSKI Jakub 388BYDGOSZCZM-Open137M 13700:00:1300:30:27.3000:30:40.30+00:12:546:059.9
138JAROSZEWSKI Wojciech 228DEEP FORESTTRYSZCZYNM-Open138M 13800:00:4600:30:32.9500:31:19.65+00:13:006:069.8
139GRUSZKA Marek 317MAKSYMILIANOWOM-Open139M 13900:00:2300:30:34.4500:30:57.70+00:13:016:069.8
140IWICKI Andrzej 239BYDGOSZCZM-Open140M 14000:00:1900:30:36.7000:30:56.10+00:13:046:079.8
141ŁABUŚ Maciej 4BYDGOSZCZM-Open141M 14100:00:1300:30:39.6000:30:53.55+00:13:076:089.8
142KONDEK Igor 464M-Open142M 14200:00:4200:30:45.8500:31:28.80+00:13:136:099.8
143PRZYBYSZEWSKI Marcin 344OSIELSKOM-Open143M 14300:00:1400:30:49.1500:31:03.65+00:13:166:099.7
144GIEŁDON Adrian 343MAKSYMILIANOWOM-Open144M 14400:00:1600:30:56.1000:31:12.15+00:13:236:119.7
145KIWIOR Michał 109MŁODE DZIKIŁOCHOWOM-Open145M 14500:00:4100:30:58.2000:31:39.40+00:13:256:119.7
146LEWANDOWSKI Marek 85KRUSZWICAM-Open146M 14600:00:3600:31:08.1500:31:45.00+00:13:356:139.6
147GRALAK Jacek 1658 KPBWOT/JS 1386BYDGOSZCZM-Open147M 14700:00:4300:31:09.5000:31:52.65+00:13:366:139.6
148KONDEK Jakub 463M-Open148M 14800:00:4600:31:09.5000:31:55.70+00:13:366:139.6
149JANKOWSKI Dariusz 127BYDGOSZCZM-Open149M 14900:00:1100:31:22.8000:31:34.75+00:13:506:169.6
150KRUKOWSKI Rafał 186INOWROCŁAWM-Open150M 15000:00:1500:31:30.8000:31:46.10+00:13:586:189.5
151DUDZIAK Michał 12CPR BYDGOSZCZBYDGOSZCZM-Open151M 15100:00:3900:31:55.7000:32:35.05+00:14:236:239.4
152SZERWIŃSKI Mateusz 195BYDGOSZCZM-Open152M 15200:00:5100:31:58.2500:32:49.90+00:14:256:239.4
153GOLIK Krzysztof 168BYDGOSZCZM-Open153M 15300:00:4900:32:17.7500:33:07.15+00:14:456:279.3
154KORBEL Marian 444M-Open154M 15400:00:3700:32:22.0500:32:59.20+00:14:496:289.3
155WROŃSKI Piotr 349BYDGOSZCZM-Open155M 15500:00:3500:32:22.7500:32:57.85+00:14:506:289.3
156GENDERKA Krzysztof 6STUDIO SZARKOWSKA&GENDERKABYDGOSZCZM-Open156M 15600:00:2200:32:57.2000:33:20.10+00:15:246:359.1
157LEWANDOWSKI Piotr 213BYDGOSZCZM-Open157M 15700:00:3200:33:19.0500:33:51.75+00:15:466:399
158GURYN Wiktor 396ZIELONY PELIKANBYDGOSZCZM-Open158M 15800:00:3100:33:39.5500:34:10.55+00:16:076:438.9
159RAJSKI Józef 432BYDGOSZCZM-Open159M 15900:00:3000:35:27.6000:35:57.70+00:17:557:058.5
160JUREK Sławomir 95FUNDACJA HORYZONTZŁOTNIKI KUJAWSKIEM-Open160M 16000:00:3800:35:32.6000:36:10.65+00:18:007:068.4
161KEMPA Arkadiusz 419BYDGOSZCZM-Open161M 16100:00:4300:35:33.8500:36:17.10+00:18:017:068.4
162CHMIELEWSKI Tomasz 238BYDGOSZCZM-Open162M 16200:00:4800:35:50.5000:36:39.15+00:18:177:108.4
163POKORSKI Tomasz 379BYDOSZCZM-Open163M 16300:00:4000:36:28.2500:37:08.55+00:18:557:178.2
164ASTUKIEWICZ Tomasz 99BYDGOSZCZM-Open164M 16400:00:4400:36:37.7500:37:21.90+00:19:057:198.2
165WIOSNA Krzysztof 462M-Open165M 16500:00:4700:37:55.2500:38:42.90+00:20:227:357.9
166PAWLAK Tomasz 461M-Open166M 16600:00:3300:38:07.4500:38:40.45+00:20:347:377.9
167LIPKA Józef 359BYDGOSZCZM-Open167M 16700:01:0800:38:07.8000:39:16.25+00:20:357:377.9
168KIWIOR Jurek 409ŁOCHOWOM-Open168M 16800:00:4200:41:48.7000:42:30.80+00:24:168:217.2
Znaleziono 168 wynik(ów)